createdAt,value
2022-11-23T00:00:15.291Z,-82.81
2022-11-23T00:01:15.276Z,-82.59
2022-11-23T00:02:15.375Z,-82.51
2022-11-23T00:03:15.244Z,-82.67
2022-11-23T00:04:15.240Z,-82.88
2022-11-23T00:05:15.226Z,-82.71
2022-11-23T00:06:15.208Z,-82.74
2022-11-23T00:07:15.233Z,-82.79
2022-11-23T00:08:15.199Z,-82.78
2022-11-23T00:09:15.156Z,-82.91
2022-11-23T00:10:18.143Z,-82.92
2022-11-23T00:11:18.184Z,-82.75
2022-11-23T00:12:15.117Z,-82.83
2022-11-23T00:13:15.172Z,-82.86
2022-11-23T00:14:15.105Z,-83.03
2022-11-23T00:15:15.081Z,-84.33
2022-11-23T00:16:15.058Z,-84.38
2022-11-23T00:17:15.085Z,-83.04
2022-11-23T00:18:15.036Z,-83.16
2022-11-23T00:19:15.048Z,-83.10
2022-11-23T00:20:15.009Z,-84.46
2022-11-23T00:21:14.998Z,-84.51
2022-11-23T00:22:14.987Z,-84.54
2022-11-23T00:23:14.997Z,-84.60
2022-11-23T00:24:14.980Z,-84.86
2022-11-23T00:25:14.995Z,-84.85
2022-11-23T00:26:14.931Z,-84.83
2022-11-23T00:27:14.919Z,-84.79
2022-11-23T00:28:14.910Z,-84.71
2022-11-23T00:29:14.952Z,-84.94
2022-11-23T00:30:17.877Z,-84.94
2022-11-23T00:31:17.888Z,-85.38
2022-11-23T00:32:14.855Z,-86.80
2022-11-23T00:33:14.841Z,-87.03
2022-11-23T00:34:14.846Z,-87.04
2022-11-23T00:35:14.842Z,-86.91
2022-11-23T00:36:14.799Z,-85.11
2022-11-23T00:37:14.819Z,-84.87
2022-11-23T00:38:14.803Z,-84.84
2022-11-23T00:39:14.912Z,-84.95
2022-11-23T00:40:15.099Z,-85.02
2022-11-23T00:41:15.049Z,-84.96
2022-11-23T00:42:15.307Z,-84.98
2022-11-23T00:43:14.703Z,-85.29
2022-11-23T00:44:14.685Z,-85.25
2022-11-23T00:45:14.686Z,-85.36
2022-11-23T00:46:14.702Z,-86.61
2022-11-23T00:47:14.651Z,-85.37
2022-11-23T00:48:14.635Z,-86.84
2022-11-23T00:49:14.641Z,-87.01
2022-11-23T00:50:17.606Z,-87.14
2022-11-23T00:51:17.664Z,-87.29
2022-11-23T00:52:14.594Z,-87.19
2022-11-23T00:53:14.567Z,-87.26
2022-11-23T00:54:14.554Z,-87.49
2022-11-23T00:55:14.544Z,-87.57
2022-11-23T00:56:14.556Z,-87.69
2022-11-23T00:57:14.536Z,-87.55
2022-11-23T00:58:14.536Z,-89.24
2022-11-23T00:59:14.491Z,-89.31
2022-11-23T01:00:14.500Z,-89.41
2022-11-23T01:01:14.477Z,-89.46
2022-11-23T01:02:14.438Z,-89.61
2022-11-23T01:03:14.435Z,-89.56
2022-11-23T01:04:14.479Z,-89.50
2022-11-23T01:05:14.407Z,-89.54
2022-11-23T01:06:14.385Z,-89.57
2022-11-23T01:07:14.416Z,-89.47
2022-11-23T01:08:14.361Z,-89.71
2022-11-23T01:09:14.351Z,-89.92
2022-11-23T01:10:17.359Z,-89.81
2022-11-23T01:11:17.340Z,-89.82
2022-11-23T01:12:14.305Z,-89.84
2022-11-23T01:13:14.291Z,-89.92
2022-11-23T01:14:14.271Z,-89.76
2022-11-23T01:15:14.287Z,-89.76
2022-11-23T01:16:17.196Z,-89.70
2022-11-23T01:17:15.243Z,-89.71
2022-11-23T01:18:14.219Z,-89.71
2022-11-23T01:19:14.207Z,-89.81
2022-11-23T01:20:14.212Z,-89.79
2022-11-23T01:21:14.172Z,-89.76
2022-11-23T01:22:14.175Z,-89.84
2022-11-23T01:23:14.151Z,-90.02
2022-11-23T01:24:14.133Z,-89.93
2022-11-23T01:25:14.150Z,-89.95
2022-11-23T01:26:14.104Z,-89.92
2022-11-23T01:27:14.094Z,-90.14
2022-11-23T01:28:14.100Z,-90.08
2022-11-23T01:29:14.062Z,-90.24
2022-11-23T01:30:17.088Z,-90.16
2022-11-23T01:31:17.053Z,-89.81
2022-11-23T01:32:14.021Z,-90.21
2022-11-23T01:33:14.011Z,-90.21
2022-11-23T01:34:14.002Z,-90.20
2022-11-23T01:35:14.032Z,-89.99
2022-11-23T01:36:13.963Z,-90.06
2022-11-23T01:37:13.954Z,-90.01
2022-11-23T01:38:18.173Z,-89.81
2022-11-23T01:39:13.925Z,-90.03
2022-11-23T01:40:13.905Z,-90.17
2022-11-23T01:41:13.966Z,-91.64
2022-11-23T01:42:17.696Z,-91.61
2022-11-23T01:43:13.877Z,-91.85
2022-11-23T01:44:13.854Z,-90.26
2022-11-23T01:45:13.846Z,-91.62
2022-11-23T01:46:13.843Z,-91.73
2022-11-23T01:47:13.866Z,-91.65
2022-11-23T01:48:13.798Z,-90.35
2022-11-23T01:49:13.814Z,-91.66
2022-11-23T01:50:16.775Z,-91.66
2022-11-23T01:51:16.775Z,-91.64
2022-11-23T01:52:13.748Z,-91.68
2022-11-23T01:53:13.771Z,-91.87
2022-11-23T01:54:13.719Z,-91.93
2022-11-23T01:55:13.706Z,-91.87
2022-11-23T01:56:13.688Z,-91.92
2022-11-23T01:57:13.685Z,-91.88
2022-11-23T01:58:13.728Z,-91.97
2022-11-23T01:59:13.659Z,-91.96
2022-11-23T02:00:13.664Z,-92.00
2022-11-23T02:01:13.638Z,-92.03
2022-11-23T02:02:13.608Z,-92.15
2022-11-23T02:03:13.598Z,-92.07
2022-11-23T02:04:13.649Z,-92.16
2022-11-23T02:05:13.569Z,-92.21
2022-11-23T02:06:13.549Z,-92.15
2022-11-23T02:07:13.605Z,-92.17
2022-11-23T02:08:13.531Z,-92.20
2022-11-23T02:09:13.521Z,-92.27
2022-11-23T02:10:16.564Z,-92.23
2022-11-23T02:11:16.521Z,-91.96
2022-11-23T02:12:13.479Z,-92.19
2022-11-23T02:13:13.470Z,-92.34
2022-11-23T02:14:13.452Z,-92.37
2022-11-23T02:15:13.481Z,-92.37
2022-11-23T02:16:13.429Z,-92.36
2022-11-23T02:17:13.414Z,-92.53
2022-11-23T02:18:13.401Z,-92.56
2022-11-23T02:19:13.383Z,-92.59
2022-11-23T02:20:13.373Z,-92.56
2022-11-23T02:21:13.414Z,-92.40
2022-11-23T02:22:13.344Z,-92.53
2022-11-23T02:23:13.348Z,-92.52
2022-11-23T02:24:13.322Z,-92.61
2022-11-23T02:25:13.313Z,-92.57
2022-11-23T02:26:13.294Z,-92.68
2022-11-23T02:27:13.299Z,-92.54
2022-11-23T02:28:13.317Z,-92.32
2022-11-23T02:29:13.348Z,-92.47
2022-11-23T02:30:16.234Z,-92.58
2022-11-23T02:31:16.242Z,-92.44
2022-11-23T02:32:13.204Z,-92.72
2022-11-23T02:33:13.189Z,-92.75
2022-11-23T02:34:13.224Z,-92.86
2022-11-23T02:35:13.164Z,-92.72
2022-11-23T02:36:13.155Z,-92.56
2022-11-23T02:37:13.137Z,-92.57
2022-11-23T02:38:13.124Z,-92.69
2022-11-23T02:39:13.111Z,-92.50
2022-11-23T02:40:13.137Z,-92.53
2022-11-23T02:41:13.094Z,-92.59
2022-11-23T02:42:13.066Z,-92.49
2022-11-23T02:43:13.055Z,-92.65
2022-11-23T02:44:13.044Z,-92.48
2022-11-23T02:45:13.030Z,-92.55
2022-11-23T02:46:13.036Z,-92.48
2022-11-23T02:47:13.060Z,-92.52
2022-11-23T02:48:12.987Z,-92.36
2022-11-23T02:49:12.989Z,-92.48
2022-11-23T02:50:15.958Z,-92.48
2022-11-23T02:51:16.004Z,-92.41
2022-11-23T02:52:12.929Z,-92.65
2022-11-23T02:53:12.919Z,-92.59
2022-11-23T02:54:12.915Z,-92.47
2022-11-23T02:55:12.887Z,-92.39
2022-11-23T02:56:12.899Z,-92.38
2022-11-23T02:57:12.863Z,-92.49
2022-11-23T02:58:12.846Z,-92.72
2022-11-23T02:59:12.831Z,-92.77
2022-11-23T03:00:12.822Z,-92.93
2022-11-23T03:01:12.869Z,-92.77
2022-11-23T03:02:12.796Z,-92.74
2022-11-23T03:03:12.823Z,-92.57
2022-11-23T03:04:12.761Z,-92.66
2022-11-23T03:05:12.741Z,-92.53
2022-11-23T03:06:12.732Z,-92.46
2022-11-23T03:07:12.825Z,-92.45
2022-11-23T03:08:12.702Z,-92.53
2022-11-23T03:09:12.694Z,-92.48
2022-11-23T03:10:15.684Z,-92.57
2022-11-23T03:11:15.675Z,-92.74
2022-11-23T03:12:12.667Z,-92.78
2022-11-23T03:13:12.677Z,-92.76
2022-11-23T03:14:12.624Z,-92.82
2022-11-23T03:15:12.610Z,-92.74
2022-11-23T03:16:12.594Z,-92.71
2022-11-23T03:17:12.600Z,-92.68
2022-11-23T03:18:12.570Z,-92.70
2022-11-23T03:19:12.575Z,-92.68
2022-11-23T03:20:12.548Z,-92.79
2022-11-23T03:21:12.553Z,-92.77
2022-11-23T03:22:12.514Z,-92.61
2022-11-23T03:23:12.495Z,-92.77
2022-11-23T03:24:12.485Z,-92.90
2022-11-23T03:25:12.502Z,-92.78
2022-11-23T03:26:13.346Z,-92.84
2022-11-23T03:27:12.436Z,-92.80
2022-11-23T03:28:12.428Z,-93.03
2022-11-23T03:29:12.417Z,-93.07
2022-11-23T03:30:15.437Z,-92.91
2022-11-23T03:31:15.463Z,-92.86
2022-11-23T03:32:12.376Z,-92.86
2022-11-23T03:33:12.357Z,-93.03
2022-11-23T03:34:12.346Z,-94.29
2022-11-23T03:35:12.330Z,-93.06
2022-11-23T03:36:12.332Z,-94.44
2022-11-23T03:37:12.330Z,-94.38
2022-11-23T03:38:12.288Z,-92.99
2022-11-23T03:39:12.268Z,-94.42
2022-11-23T03:40:12.260Z,-94.34
2022-11-23T03:41:12.301Z,-92.88
2022-11-23T03:42:12.239Z,-94.25
2022-11-23T03:43:12.229Z,-92.93
2022-11-23T03:44:12.208Z,-94.31
2022-11-23T03:45:12.205Z,-94.27
2022-11-23T03:46:12.179Z,-93.02
2022-11-23T03:47:12.193Z,-92.99
2022-11-23T03:48:12.155Z,-93.03
2022-11-23T03:49:12.146Z,-94.50
2022-11-23T03:50:15.122Z,-94.62
2022-11-23T03:51:15.122Z,-94.67
2022-11-23T03:52:12.127Z,-94.43
2022-11-23T03:53:12.122Z,-94.69
2022-11-23T03:54:12.080Z,-94.62
2022-11-23T03:55:12.061Z,-94.65
2022-11-23T03:56:12.044Z,-94.58
2022-11-23T03:57:12.031Z,-94.70
2022-11-23T03:58:12.021Z,-94.76
2022-11-23T03:59:12.045Z,-94.74
2022-11-23T04:00:11.991Z,-94.65
2022-11-23T04:01:12.025Z,-94.49
2022-11-23T04:02:11.964Z,-94.57
2022-11-23T04:03:11.971Z,-94.61
2022-11-23T04:04:11.941Z,-94.66
2022-11-23T04:05:11.923Z,-94.82
2022-11-23T04:06:11.906Z,-94.85
2022-11-23T04:07:11.951Z,-94.99
2022-11-23T04:08:11.904Z,-94.97
2022-11-23T04:09:11.926Z,-94.97
2022-11-23T04:10:14.856Z,-94.92
2022-11-23T04:11:14.885Z,-94.81
2022-11-23T04:12:11.825Z,-94.69
2022-11-23T04:13:11.805Z,-94.77
2022-11-23T04:14:11.824Z,-94.92
2022-11-23T04:15:11.813Z,-94.99
2022-11-23T04:16:11.774Z,-94.83
2022-11-23T04:17:11.756Z,-95.07
2022-11-23T04:18:11.756Z,-95.04
2022-11-23T04:19:11.775Z,-95.05
2022-11-23T04:20:11.725Z,-95.19
2022-11-23T04:21:11.698Z,-95.22
2022-11-23T04:22:11.699Z,-95.14
2022-11-23T04:23:13.487Z,-95.20
2022-11-23T04:24:11.690Z,-95.36
2022-11-23T04:25:11.649Z,-95.44
2022-11-23T04:26:11.648Z,-95.42
2022-11-23T04:27:11.637Z,-95.35
2022-11-23T04:28:11.609Z,-95.32
2022-11-23T04:29:11.631Z,-95.41
2022-11-23T04:30:14.586Z,-95.37
2022-11-23T04:31:14.579Z,-95.45
2022-11-23T04:32:11.589Z,-95.45
2022-11-23T04:33:11.540Z,-95.39
2022-11-23T04:34:11.536Z,-95.42
2022-11-23T04:35:11.539Z,-95.45
2022-11-23T04:36:11.546Z,-95.43
2022-11-23T04:37:13.445Z,-95.53
2022-11-23T04:38:11.479Z,-95.58
2022-11-23T04:39:11.489Z,-95.68
2022-11-23T04:40:11.452Z,-95.83
2022-11-23T04:41:11.443Z,-95.77
2022-11-23T04:42:11.420Z,-95.71
2022-11-23T04:43:11.411Z,-95.70
2022-11-23T04:44:11.422Z,-95.62
2022-11-23T04:45:11.379Z,-95.62
2022-11-23T04:46:11.394Z,-95.55
2022-11-23T04:47:11.364Z,-95.55
2022-11-23T04:48:11.345Z,-95.68
2022-11-23T04:49:11.330Z,-95.70
2022-11-23T04:50:14.318Z,-95.87
2022-11-23T04:51:14.386Z,-95.71
2022-11-23T04:52:11.292Z,-95.70
2022-11-23T04:53:11.292Z,-95.89
2022-11-23T04:54:11.261Z,-95.71
2022-11-23T04:55:11.243Z,-95.60
2022-11-23T04:56:11.237Z,-95.56
2022-11-23T04:57:11.262Z,-95.71
2022-11-23T04:58:11.236Z,-95.76
2022-11-23T04:59:11.199Z,-95.72
2022-11-23T05:00:11.177Z,-95.69
2022-11-23T05:01:11.223Z,-95.76
2022-11-23T05:02:11.156Z,-95.70
2022-11-23T05:03:11.164Z,-95.72
2022-11-23T05:04:16.271Z,-95.77
2022-11-23T05:05:12.107Z,-95.68
2022-11-23T05:06:11.101Z,-95.81
2022-11-23T05:07:11.149Z,-95.87
2022-11-23T05:08:11.095Z,-95.83
2022-11-23T05:09:11.058Z,-95.80
2022-11-23T05:10:14.057Z,-95.74
2022-11-23T05:11:14.045Z,-97.32
2022-11-23T05:12:11.015Z,-97.32
2022-11-23T05:13:11.026Z,-95.83
2022-11-23T05:14:10.988Z,-97.27
2022-11-23T05:15:10.973Z,-97.30
2022-11-23T05:16:10.961Z,-97.38
2022-11-23T05:17:10.944Z,-97.36
2022-11-23T05:18:10.976Z,-97.28
2022-11-23T05:19:10.944Z,-97.52
2022-11-23T05:20:10.909Z,-97.36
2022-11-23T05:21:10.895Z,-97.54
2022-11-23T05:22:10.882Z,-97.59
2022-11-23T05:23:10.864Z,-97.39
2022-11-23T05:24:10.881Z,-95.94
2022-11-23T05:25:10.880Z,-97.36
2022-11-23T05:26:10.848Z,-97.57
2022-11-23T05:27:10.816Z,-97.49
2022-11-23T05:28:30.545Z,-95.86
2022-11-23T05:29:11.782Z,-95.96
2022-11-23T05:30:13.809Z,-97.47
2022-11-23T05:31:13.791Z,-97.56
2022-11-23T05:32:10.741Z,-97.55
2022-11-23T05:33:10.738Z,-97.58
2022-11-23T05:34:10.718Z,-97.48
2022-11-23T05:35:10.742Z,-97.60
2022-11-23T05:36:10.701Z,-97.57
2022-11-23T05:37:10.677Z,-97.28
2022-11-23T05:38:10.663Z,-97.34
2022-11-23T05:39:10.643Z,-97.51
2022-11-23T05:40:10.655Z,-97.32
2022-11-23T05:41:10.676Z,-97.38
2022-11-23T05:42:10.613Z,-97.39
2022-11-23T05:43:10.591Z,-97.25
2022-11-23T05:44:10.582Z,-97.26
2022-11-23T05:45:11.865Z,-97.29
2022-11-23T05:46:10.556Z,-97.44
2022-11-23T05:47:10.574Z,-97.70
2022-11-23T05:48:10.527Z,-97.62
2022-11-23T05:49:10.514Z,-97.57
2022-11-23T05:50:13.494Z,-97.58
2022-11-23T05:51:13.496Z,-97.39
2022-11-23T05:52:10.474Z,-97.45
2022-11-23T05:53:10.485Z,-97.79
2022-11-23T05:54:10.485Z,-97.72
2022-11-23T05:55:10.426Z,-97.67
2022-11-23T05:56:10.428Z,-97.59
2022-11-23T05:57:10.404Z,-97.60
2022-11-23T05:58:10.386Z,-97.59
2022-11-23T05:59:10.378Z,-97.57
2022-11-23T06:00:10.406Z,-97.54
2022-11-23T06:01:10.358Z,-97.66
2022-11-23T06:02:10.340Z,-97.57
2022-11-23T06:03:10.318Z,-97.45
2022-11-23T06:04:10.378Z,-97.57
2022-11-23T06:05:10.297Z,-97.57
2022-11-23T06:06:10.310Z,-97.51
2022-11-23T06:07:10.345Z,-97.50
2022-11-23T06:08:10.265Z,-97.47
2022-11-23T06:09:10.267Z,-97.54
2022-11-23T06:10:13.295Z,-97.65
2022-11-23T06:11:13.221Z,-97.48
2022-11-23T06:12:10.208Z,-97.47
2022-11-23T06:13:10.185Z,-97.49
2022-11-23T06:14:14.214Z,-97.58
2022-11-23T06:15:10.164Z,-97.59
2022-11-23T06:16:10.181Z,-97.67
2022-11-23T06:17:10.129Z,-97.72
2022-11-23T06:18:10.147Z,-98.06
2022-11-23T06:19:10.121Z,-98.10
2022-11-23T06:20:10.151Z,-98.08
2022-11-23T06:21:10.089Z,-97.93
2022-11-23T06:22:10.069Z,-98.09
2022-11-23T06:23:10.052Z,-98.03
2022-11-23T06:24:10.051Z,-98.00
2022-11-23T06:25:10.027Z,-98.08
2022-11-23T06:26:10.064Z,-97.85
2022-11-23T06:27:14.006Z,-97.78
2022-11-23T06:28:10.993Z,-97.80
2022-11-23T06:29:09.982Z,-97.85
2022-11-23T06:30:12.960Z,-97.85
2022-11-23T06:31:13.015Z,-97.99
2022-11-23T06:32:09.939Z,-98.23
2022-11-23T06:33:09.922Z,-98.10
2022-11-23T06:34:09.904Z,-98.05
2022-11-23T06:35:09.896Z,-97.87
2022-11-23T06:36:09.883Z,-97.96
2022-11-23T06:37:09.906Z,-97.98
2022-11-23T06:38:09.857Z,-98.09
2022-11-23T06:39:09.845Z,-97.97
2022-11-23T06:40:09.824Z,-98.20
2022-11-23T06:41:09.820Z,-97.86
2022-11-23T06:42:37.678Z,-97.99
2022-11-23T06:43:10.827Z,-98.04
2022-11-23T06:44:09.777Z,-98.15
2022-11-23T06:45:09.764Z,-98.35
2022-11-23T06:46:09.745Z,-98.25
2022-11-23T06:47:15.353Z,-98.22
2022-11-23T06:48:10.717Z,-98.33
2022-11-23T06:49:09.894Z,-98.39
2022-11-23T06:50:12.690Z,-98.29
2022-11-23T06:51:12.697Z,-98.26
2022-11-23T06:52:09.671Z,-98.43
2022-11-23T06:53:09.659Z,-98.39
2022-11-23T06:54:09.639Z,-98.51
2022-11-23T06:55:09.693Z,-98.66
2022-11-23T06:56:09.626Z,-98.51
2022-11-23T06:57:09.600Z,-98.42
2022-11-23T06:58:09.586Z,-98.43
2022-11-23T06:59:09.578Z,-98.28
2022-11-23T07:00:09.559Z,-98.35
2022-11-23T07:01:09.661Z,-98.37
2022-11-23T07:02:09.543Z,-98.31
2022-11-23T07:03:09.563Z,-98.28
2022-11-23T07:04:09.510Z,-98.15
2022-11-23T07:05:09.499Z,-97.99
2022-11-23T07:06:09.504Z,-97.84
2022-11-23T07:07:09.565Z,-97.97
2022-11-23T07:08:09.452Z,-98.06
2022-11-23T07:09:09.442Z,-98.02
2022-11-23T07:10:12.444Z,-98.03
2022-11-23T07:11:12.440Z,-97.97
2022-11-23T07:12:09.398Z,-98.15
2022-11-23T07:13:09.428Z,-98.04
2022-11-23T07:14:09.373Z,-98.21
2022-11-23T07:15:09.376Z,-97.99
2022-11-23T07:16:09.345Z,-98.02
2022-11-23T07:17:12.654Z,-98.05
2022-11-23T07:18:10.366Z,-98.21
2022-11-23T07:19:09.344Z,-98.16
2022-11-23T07:20:09.293Z,-98.12
2022-11-23T07:21:09.282Z,-98.20
2022-11-23T07:22:09.264Z,-98.35
2022-11-23T07:23:09.256Z,-98.37
2022-11-23T07:24:09.296Z,-98.23
2022-11-23T07:25:09.234Z,-98.25
2022-11-23T07:26:09.212Z,-98.23
2022-11-23T07:27:09.205Z,-98.26
2022-11-23T07:28:09.184Z,-98.24
2022-11-23T07:29:09.182Z,-98.38
2022-11-23T07:30:12.196Z,-98.40
2022-11-23T07:31:12.180Z,-98.33
2022-11-23T07:32:09.138Z,-98.33
2022-11-23T07:33:09.123Z,-98.45
2022-11-23T07:34:09.119Z,-98.54
2022-11-23T07:35:09.110Z,-98.46
2022-11-23T07:36:09.106Z,-98.44
2022-11-23T07:37:09.066Z,-98.42
2022-11-23T07:38:09.106Z,-98.59
2022-11-23T07:39:09.037Z,-98.20
2022-11-23T07:40:09.027Z,-98.39
2022-11-23T07:41:09.010Z,-98.38
2022-11-23T07:42:31.747Z,-98.65
2022-11-23T07:43:10.011Z,-98.42
2022-11-23T07:44:08.967Z,-98.66
2022-11-23T07:45:09.037Z,-98.82
2022-11-23T07:46:08.986Z,-98.58
2022-11-23T07:47:08.929Z,-98.69
2022-11-23T07:48:08.929Z,-98.84
2022-11-23T07:49:08.906Z,-98.86
2022-11-23T07:50:11.920Z,-99.09
2022-11-23T07:51:11.886Z,-99.09
2022-11-23T07:52:08.867Z,-98.98
2022-11-23T07:53:08.869Z,-99.06
2022-11-23T07:54:08.899Z,-99.23
2022-11-23T07:55:08.821Z,-99.19
2022-11-23T07:56:08.835Z,-100.64
2022-11-23T07:57:08.800Z,-100.73
2022-11-23T07:58:08.802Z,-100.75
2022-11-23T07:59:08.769Z,-100.77
2022-11-23T08:00:08.813Z,-100.81
2022-11-23T08:01:08.742Z,-100.92
2022-11-23T08:02:08.792Z,-100.88
2022-11-23T08:04:09.702Z,-100.80
2022-11-23T08:05:13.862Z,-101.02
2022-11-23T08:06:09.704Z,-101.24
2022-11-23T08:07:08.755Z,-101.09
2022-11-23T08:08:08.644Z,-101.10
2022-11-23T08:09:08.647Z,-101.09
2022-11-23T08:10:11.616Z,-101.20
2022-11-23T08:11:11.623Z,-100.88
2022-11-23T08:12:08.588Z,-101.09
2022-11-23T08:13:08.608Z,-101.23
2022-11-23T08:14:08.587Z,-101.26
2022-11-23T08:15:08.567Z,-101.35
2022-11-23T08:16:08.555Z,-101.57
2022-11-23T08:17:08.527Z,-101.68
2022-11-23T08:18:08.563Z,-101.63
2022-11-23T08:19:08.561Z,-102.02
2022-11-23T08:20:08.489Z,-102.01
2022-11-23T08:21:08.480Z,-102.26
2022-11-23T08:22:08.459Z,-102.31
2022-11-23T08:23:08.446Z,-102.51
2022-11-23T08:24:08.430Z,-102.63
2022-11-23T08:25:08.451Z,-102.66
2022-11-23T08:26:13.463Z,-102.68
2022-11-23T08:27:09.399Z,-102.48
2022-11-23T08:28:08.390Z,-102.22
2022-11-23T08:29:08.404Z,-102.33
2022-11-23T08:30:11.373Z,-102.08
2022-11-23T08:31:11.372Z,-102.16
2022-11-23T08:32:08.329Z,-102.19
2022-11-23T08:33:08.314Z,-102.47
2022-11-23T08:34:08.297Z,-102.81
2022-11-23T08:35:08.361Z,-102.97
2022-11-23T08:36:08.262Z,-104.39
2022-11-23T08:37:08.271Z,-104.60
2022-11-23T08:38:08.241Z,-104.89
2022-11-23T08:39:08.253Z,-105.04
2022-11-23T08:40:08.212Z,-104.91
2022-11-23T08:41:08.409Z,-105.41
2022-11-23T08:42:08.183Z,-105.54
2022-11-23T08:43:08.182Z,-105.58
2022-11-23T08:44:08.167Z,-105.69
2022-11-23T08:45:08.152Z,-105.74
2022-11-23T08:46:11.201Z,-105.93
2022-11-23T08:47:08.155Z,-106.01
2022-11-23T08:48:08.154Z,-106.16
2022-11-23T08:49:08.146Z,-106.37
2022-11-23T08:50:11.084Z,-106.37
2022-11-23T08:51:11.087Z,-106.35
2022-11-23T08:52:08.055Z,-106.11
2022-11-23T08:53:08.050Z,-105.69
2022-11-23T08:54:08.075Z,-105.65
2022-11-23T08:55:08.014Z,-105.65
2022-11-23T08:56:07.996Z,-105.74
2022-11-23T08:57:07.996Z,-105.69
2022-11-23T08:58:13.135Z,-105.66
2022-11-23T08:59:08.986Z,-105.59
2022-11-23T09:00:08.177Z,-105.53
2022-11-23T09:01:08.018Z,-105.36
2022-11-23T09:02:07.919Z,-105.53
2022-11-23T09:03:07.914Z,-105.49
2022-11-23T09:04:07.928Z,-105.41
2022-11-23T09:05:07.877Z,-105.39
2022-11-23T09:06:07.884Z,-105.63
2022-11-23T09:07:07.921Z,-105.72
2022-11-23T09:08:07.841Z,-105.58
2022-11-23T09:09:07.834Z,-105.65
2022-11-23T09:10:16.549Z,-105.71
2022-11-23T09:11:11.824Z,-105.71
2022-11-23T09:12:07.801Z,-105.84
2022-11-23T09:13:07.770Z,-105.90
2022-11-23T09:14:07.761Z,-105.80
2022-11-23T09:15:07.807Z,-105.99
2022-11-23T09:16:07.731Z,-105.72
2022-11-23T09:17:07.721Z,-105.74
2022-11-23T09:18:07.699Z,-105.86
2022-11-23T09:19:07.691Z,-106.09
2022-11-23T09:20:07.681Z,-106.07
2022-11-23T09:21:07.696Z,-105.97
2022-11-23T09:22:07.652Z,-106.18
2022-11-23T09:23:13.558Z,-106.51
2022-11-23T09:24:08.670Z,-106.64
2022-11-23T09:25:07.690Z,-106.47
2022-11-23T09:26:07.619Z,-106.62
2022-11-23T09:27:07.583Z,-106.83
2022-11-23T09:28:07.574Z,-106.85
2022-11-23T09:29:07.573Z,-106.98
2022-11-23T09:30:10.578Z,-107.02
2022-11-23T09:31:10.544Z,-107.14
2022-11-23T09:32:07.513Z,-107.18
2022-11-23T09:33:07.505Z,-107.34
2022-11-23T09:34:07.533Z,-107.53
2022-11-23T09:35:07.478Z,-107.15
2022-11-23T09:36:07.465Z,-107.21
2022-11-23T09:37:07.454Z,-107.47
2022-11-23T09:38:07.436Z,-107.73
2022-11-23T09:39:07.425Z,-107.60
2022-11-23T09:40:07.466Z,-107.94
2022-11-23T09:41:07.397Z,-108.03
2022-11-23T09:42:07.382Z,-108.28
2022-11-23T09:43:07.429Z,-108.31
2022-11-23T09:44:07.356Z,-108.53
2022-11-23T09:45:07.345Z,-108.52
2022-11-23T09:46:07.380Z,-108.62
2022-11-23T09:47:07.316Z,-108.81
2022-11-23T09:48:07.299Z,-108.87
2022-11-23T09:49:07.293Z,-109.17
2022-11-23T09:50:10.278Z,-109.14
2022-11-23T09:51:10.328Z,-108.82
2022-11-23T09:52:07.247Z,-109.06
2022-11-23T09:53:07.234Z,-108.87
2022-11-23T09:54:07.219Z,-108.74
2022-11-23T09:55:07.209Z,-108.81
2022-11-23T09:56:07.219Z,-108.56
2022-11-23T09:57:07.183Z,-108.43
2022-11-23T09:58:07.161Z,-108.51
2022-11-23T09:59:07.151Z,-108.40
2022-11-23T10:00:07.139Z,-108.30
2022-11-23T10:01:07.385Z,-108.24
2022-11-23T10:02:07.139Z,-108.56
2022-11-23T10:03:07.155Z,-108.72
2022-11-23T10:04:07.084Z,-108.81
2022-11-23T10:05:07.072Z,-108.60
2022-11-23T10:06:07.073Z,-108.18
2022-11-23T10:07:07.115Z,-108.21
2022-11-23T10:08:07.039Z,-108.49
2022-11-23T10:09:07.050Z,-108.56
2022-11-23T10:10:10.023Z,-108.64
2022-11-23T10:11:10.032Z,-108.81
2022-11-23T10:12:06.994Z,-109.10
2022-11-23T10:13:06.974Z,-109.23
2022-11-23T10:14:06.954Z,-109.42
2022-11-23T10:15:06.973Z,-109.56
2022-11-23T10:16:06.922Z,-109.70
2022-11-23T10:17:06.919Z,-109.83
2022-11-23T10:18:06.893Z,-110.02
2022-11-23T10:19:06.885Z,-110.44
2022-11-23T10:20:06.875Z,-110.69
2022-11-23T10:21:06.905Z,-110.97
2022-11-23T10:22:06.857Z,-110.93
2022-11-23T10:23:06.825Z,-111.21
2022-11-23T10:24:06.816Z,-111.50
2022-11-23T10:25:06.837Z,-111.52
2022-11-23T10:26:06.787Z,-111.37
2022-11-23T10:27:06.806Z,-111.40
2022-11-23T10:28:06.766Z,-111.35
2022-11-23T10:29:06.800Z,-111.47
2022-11-23T10:30:09.768Z,-111.50
2022-11-23T10:31:09.756Z,-111.40
2022-11-23T10:32:06.706Z,-111.22
2022-11-23T10:33:06.708Z,-111.44
2022-11-23T10:34:06.682Z,-111.66
2022-11-23T10:35:06.667Z,-111.88
2022-11-23T10:36:06.688Z,-112.36
2022-11-23T10:37:06.673Z,-112.39
2022-11-23T10:38:06.636Z,-112.68
2022-11-23T10:39:06.622Z,-112.81
2022-11-23T10:40:06.647Z,-113.06
2022-11-23T10:41:06.619Z,-113.25
2022-11-23T10:42:06.602Z,-113.80
2022-11-23T10:43:06.553Z,-114.05
2022-11-23T10:44:06.542Z,-114.28
2022-11-23T10:45:06.532Z,-114.59
2022-11-23T10:46:06.542Z,-114.80
2022-11-23T10:47:06.536Z,-114.80
2022-11-23T10:48:06.496Z,-114.99
2022-11-23T10:49:06.493Z,-115.14
2022-11-23T10:50:09.466Z,-114.86
2022-11-23T10:51:09.467Z,-114.89
2022-11-23T10:52:06.465Z,-114.94
2022-11-23T10:53:06.423Z,-114.82
2022-11-23T10:54:06.498Z,-114.83
2022-11-23T10:55:06.396Z,-115.04
2022-11-23T10:56:06.381Z,-115.39
2022-11-23T10:57:06.463Z,-115.81
2022-11-23T10:58:06.360Z,-115.97
2022-11-23T10:59:06.358Z,-115.71
2022-11-23T11:00:06.327Z,-115.92
2022-11-23T11:01:06.307Z,-115.80
2022-11-23T11:02:06.349Z,-115.74
2022-11-23T11:03:06.326Z,-115.75
2022-11-23T11:04:06.449Z,-115.96
2022-11-23T11:05:06.262Z,-115.61
2022-11-23T11:06:09.216Z,-115.56
2022-11-23T11:07:06.260Z,-115.96
2022-11-23T11:08:06.232Z,-116.06
2022-11-23T11:09:10.864Z,-116.36
2022-11-23T11:10:10.207Z,-116.35
2022-11-23T11:11:09.192Z,-116.36
2022-11-23T11:12:06.160Z,-115.96
2022-11-23T11:13:06.147Z,-115.84
2022-11-23T11:14:06.160Z,-116.01
2022-11-23T11:15:11.414Z,-116.11
2022-11-23T11:16:07.115Z,-116.19
2022-11-23T11:17:06.088Z,-116.02
2022-11-23T11:18:06.093Z,-115.82
2022-11-23T11:19:06.092Z,-115.49
2022-11-23T11:20:06.053Z,-116.01
2022-11-23T11:21:06.033Z,-116.07
2022-11-23T11:22:06.032Z,-116.23
2022-11-23T11:23:06.027Z,-116.27
2022-11-23T11:24:06.093Z,-116.50
2022-11-23T11:25:05.984Z,-116.74
2022-11-23T11:26:05.973Z,-117.16
2022-11-23T11:27:05.965Z,-117.06
2022-11-23T11:28:05.943Z,-117.04
2022-11-23T11:29:05.956Z,-117.12
2022-11-23T11:30:08.924Z,-117.22
2022-11-23T11:31:08.912Z,-117.39
2022-11-23T11:32:05.894Z,-116.87
2022-11-23T11:33:05.879Z,-117.31
2022-11-23T11:34:05.925Z,-117.64
2022-11-23T11:35:05.861Z,-117.45
2022-11-23T11:36:05.840Z,-117.92
2022-11-23T11:37:05.834Z,-118.15
2022-11-23T11:38:05.808Z,-118.44
2022-11-23T11:39:18.327Z,-118.35
2022-11-23T11:40:06.806Z,-118.19
2022-11-23T11:41:05.788Z,-118.15
2022-11-23T11:42:05.747Z,-118.18
2022-11-23T11:43:05.764Z,-118.22
2022-11-23T11:44:05.726Z,-117.92
2022-11-23T11:45:05.738Z,-118.02
2022-11-23T11:46:28.114Z,-118.15
2022-11-23T11:47:06.688Z,-118.00
2022-11-23T11:48:05.670Z,-117.72
2022-11-23T11:49:05.656Z,-117.78
2022-11-23T11:50:08.698Z,-118.09
2022-11-23T11:51:08.647Z,-118.22
2022-11-23T11:52:05.633Z,-118.30
2022-11-23T11:53:05.638Z,-118.87
2022-11-23T11:54:05.588Z,-119.05
2022-11-23T11:55:05.583Z,-119.14
2022-11-23T11:56:05.625Z,-119.22
2022-11-23T11:57:05.582Z,-119.58
2022-11-23T11:58:05.539Z,-119.74
2022-11-23T11:59:05.566Z,-119.84
2022-11-23T12:00:05.509Z,-119.88
2022-11-23T12:01:05.493Z,-120.13
2022-11-23T12:02:05.473Z,-119.84
2022-11-23T12:03:05.531Z,-120.57
2022-11-23T12:04:05.455Z,-121.40
2022-11-23T12:05:05.546Z,-121.72
2022-11-23T12:06:05.435Z,-121.71
2022-11-23T12:07:05.445Z,-121.44
2022-11-23T12:08:05.433Z,-121.68
2022-11-23T12:09:05.395Z,-121.83
2022-11-23T12:10:08.425Z,-121.50
2022-11-23T12:11:08.388Z,-120.87
2022-11-23T12:12:05.352Z,-120.82
2022-11-23T12:13:05.343Z,-120.23
2022-11-23T12:14:05.315Z,-120.11
2022-11-23T12:15:20.462Z,-119.72
2022-11-23T12:16:06.321Z,-119.75
2022-11-23T12:17:31.547Z,-119.88
2022-11-23T12:18:06.288Z,-119.75
2022-11-23T12:19:05.244Z,-119.80
2022-11-23T12:20:05.226Z,-119.54
2022-11-23T12:21:05.407Z,-119.65